Time;durP1;ratioP1;P1;durP2;ratioP2;P2;SDS_P1;SDS_P2;PMS_P1;PMS_P2;Temp;Humidity;BMP_temperature;BMP_pressure;BME280_temperature;BME280_humidity;BME280_pressure;Samples;Min_cycle;Max_cycle;Signal;HPM_P1;HPM_P2
2022/06/27 00:00:51;;;;;;;;;;;21.20;97.60;;;;;;4955381;29;20468;-74
2022/06/27 00:03:23;;;;;;;;;;;21.10;97.70;;;;;;4979531;28;20013;-74
2022/06/27 00:05:55;;;;;;;;;;;21.10;97.50;;;;;;4966947;28;19934;-73
2022/06/27 00:08:26;;;;;;;;;;;21.20;97.80;;;;;;4945994;28;19923;-72
2022/06/27 00:10:58;;;;;;;;;;;21.10;97.90;;;;;;4969061;28;20298;-73
2022/06/27 00:13:29;;;;;;;;;;;21.10;98.10;;;;;;4940089;29;19930;-74
2022/06/27 00:16:01;;;;;;;;;;;21.20;97.50;;;;;;4947567;29;20296;-73
2022/06/27 00:18:33;;;;;;;;;;;21.20;98.00;;;;;;4949467;28;20371;-72
2022/06/27 00:21:04;;;;;;;;;;;21.10;98.60;;;;;;4941411;29;19922;-73
2022/06/27 00:23:31;;;;;;;;;;;21.00;99.20;;;;;;4962796;28;20401;-72
2022/06/27 00:26:03;;;;;;;;;;;21.00;99.60;;;;;;4987126;28;19933;-74
2022/06/27 00:28:34;;;;;;;;;;;20.90;99.90;;;;;;4959172;28;20017;-74
2022/06/27 00:31:06;;;;;;;;;;;20.80;99.90;;;;;;4943474;29;19923;-73
2022/06/27 00:33:38;;;;;;;;;;;20.70;99.90;;;;;;4937001;29;19929;-73
2022/06/27 00:36:09;;;;;;;;;;;20.60;99.90;;;;;;4952129;29;19922;-73
2022/06/27 00:38:41;;;;;;;;;;;20.70;99.90;;;;;;4936725;29;19982;-74
2022/06/27 00:41:08;;;;;;;;;;;20.60;99.90;;;;;;4951699;29;20564;-74
2022/06/27 00:43:44;;;;;;;;;;;20.70;99.90;;;;;;4952229;28;20495;-73
2022/06/27 00:46:15;;;;;;;;;;;20.70;99.90;;;;;;4960601;28;19929;-73
2022/06/27 00:48:47;;;;;;;;;;;20.70;99.90;;;;;;4950328;28;19945;-73
2022/06/27 00:51:19;;;;;;;;;;;20.60;99.90;;;;;;4952658;28;20034;-74
2022/06/27 00:53:54;;;;;;;;;;;20.50;99.90;;;;;;4951542;29;20420;-73
2022/06/27 00:56:26;;;;;;;;;;;20.40;99.90;;;;;;4951482;29;19922;-73
2022/06/27 00:58:53;;;;;;;;;;;20.40;99.90;;;;;;4936827;29;20017;-73
2022/06/27 01:01:24;;;;;;;;;;;20.30;99.90;;;;;;4951058;29;20391;-73
2022/06/27 01:04:00;;;;;;;;;;;20.30;99.90;;;;;;4964629;28;20018;-73
2022/06/27 01:06:32;;;;;;;;;;;20.40;99.90;;;;;;4967366;28;19937;-73
2022/06/27 01:09:04;;;;;;;;;;;20.30;99.90;;;;;;4941992;29;20550;-72
2022/06/27 01:11:31;;;;;;;;;;;20.30;99.90;;;;;;4970659;28;20719;-73
2022/06/27 01:13:58;;;;;;;;;;;20.40;99.90;;;;;;4959463;28;20029;-73
2022/06/27 01:16:29;;;;;;;;;;;20.40;99.90;;;;;;4961629;28;19923;-73
2022/06/27 01:19:02;;;;;;;;;;;20.40;99.90;;;;;;4963801;28;19954;-73
2022/06/27 01:21:31;;;;;;;;;;;20.40;99.90;;;;;;4956197;28;19933;-73
2022/06/27 01:24:02;;;;;;;;;;;20.40;99.90;;;;;;4979027;28;20009;-73
2022/06/27 01:26:29;;;;;;;;;;;20.10;99.90;;;;;;4954805;28;19977;-73
2022/06/27 01:29:02;;;;;;;;;;;19.90;99.90;;;;;;4969616;28;19952;-73
2022/06/27 01:31:30;;;;;;;;;;;20.00;99.90;;;;;;4962134;28;19926;-72
2022/06/27 01:34:02;;;;;;;;;;;20.00;99.90;;;;;;4945444;28;19923;-73
2022/06/27 01:36:42;;;;;;;;;;;20.10;99.90;;;;;;4952568;29;19926;-73
2022/06/27 01:39:18;;;;;;;;;;;20.20;99.90;;;;;;4950094;28;20379;-73
2022/06/27 01:41:50;;;;;;;;;;;20.20;99.90;;;;;;4945535;29;19933;-73
2022/06/27 01:44:24;;;;;;;;;;;20.40;99.90;;;;;;4961096;28;20379;-73
2022/06/27 01:46:56;;;;;;;;;;;20.30;99.90;;;;;;4952050;29;19930;-73
2022/06/27 01:49:28;;;;;;;;;;;20.30;99.90;;;;;;4960456;28;19941;-73
2022/06/27 01:52:03;;;;;;;;;;;20.20;99.90;;;;;;4964273;28;19922;-73
2022/06/27 01:54:35;;;;;;;;;;;20.20;99.90;;;;;;4945805;28;20018;-73
2022/06/27 01:57:09;;;;;;;;;;;20.10;99.90;;;;;;4968954;28;19922;-73
2022/06/27 01:59:42;;;;;;;;;;;20.00;99.90;;;;;;4956305;28;19932;-73
2022/06/27 02:02:14;;;;;;;;;;;19.90;99.90;;;;;;4948050;28;19927;-73
2022/06/27 02:04:47;;;;;;;;;;;19.80;99.90;;;;;;4963722;28;19934;-73
2022/06/27 02:07:14;;;;;;;;;;;19.70;99.90;;;;;;4934768;29;19922;-73
2022/06/27 02:09:46;;;;;;;;;;;19.70;99.90;;;;;;4957102;28;19922;-73
2022/06/27 02:12:19;;;;;;;;;;;19.70;99.90;;;;;;4961444;28;20421;-73
2022/06/27 02:14:51;;;;;;;;;;;19.70;99.90;;;;;;4933871;29;19933;-73
2022/06/27 02:17:35;;;;;;;;;;;19.70;99.90;;;;;;4958920;28;20335;-73
2022/06/27 02:20:05;;;;;;;;;;;19.70;99.90;;;;;;4961620;28;19927;-73
2022/06/27 02:22:37;;;;;;;;;;;19.70;99.90;;;;;;4973272;28;19970;-72
2022/06/27 02:25:10;;;;;;;;;;;19.70;99.90;;;;;;4959263;28;19950;-74
2022/06/27 02:27:41;;;;;;;;;;;19.70;99.90;;;;;;4977085;28;19938;-72
2022/06/27 02:30:13;;;;;;;;;;;19.70;99.90;;;;;;4958091;28;19922;-74
2022/06/27 02:32:45;;;;;;;;;;;19.70;99.90;;;;;;4962937;28;19961;-73
2022/06/27 02:35:17;;;;;;;;;;;19.80;99.90;;;;;;4954974;28;19929;-74
2022/06/27 02:37:50;;;;;;;;;;;19.70;99.90;;;;;;4957264;28;19927;-73
2022/06/27 02:40:22;;;;;;;;;;;19.80;99.90;;;;;;4957863;28;19935;-74
2022/06/27 02:42:51;;;;;;;;;;;19.80;99.90;;;;;;4956567;28;19928;-73
2022/06/27 02:45:17;;;;;;;;;;;19.80;99.90;;;;;;4958556;28;19922;-73
2022/06/27 02:47:49;;;;;;;;;;;19.80;99.90;;;;;;4971805;28;19922;-74
2022/06/27 02:50:22;;;;;;;;;;;19.80;99.90;;;;;;4960294;28;19923;-72
2022/06/27 02:52:52;;;;;;;;;;;19.80;99.90;;;;;;4958130;28;20017;-74
2022/06/27 02:55:22;;;;;;;;;;;19.80;99.90;;;;;;4968375;28;20335;-74
2022/06/27 02:57:59;;;;;;;;;;;19.80;99.90;;;;;;4956997;28;19923;-74
2022/06/27 03:00:32;;;;;;;;;;;19.80;99.90;;;;;;4964096;28;19954;-73
2022/06/27 03:03:05;;;;;;;;;;;19.80;99.90;;;;;;4971233;28;19927;-74
2022/06/27 03:06:01;;;;;;;;;;;19.80;99.90;;;;;;4968150;28;19933;-73
2022/06/27 03:08:41;;;;;;;;;;;19.80;99.90;;;;;;4958586;28;20339;-73
2022/06/27 03:11:18;;;;;;;;;;;19.80;99.90;;;;;;4960532;28;19923;-73
2022/06/27 03:13:47;;;;;;;;;;;19.70;99.90;;;;;;4976719;28;20283;-73
2022/06/27 03:16:19;;;;;;;;;;;19.80;99.90;;;;;;4956124;28;19923;-73
2022/06/27 03:18:52;;;;;;;;;;;19.70;99.90;;;;;;4978158;28;19937;-74
2022/06/27 03:21:39;;;;;;;;;;;19.70;99.90;;;;;;4956995;28;20384;-73
2022/06/27 03:24:11;;;;;;;;;;;19.70;99.90;;;;;;4977673;28;20009;-74
2022/06/27 03:26:42;;;;;;;;;;;19.60;99.90;;;;;;4938965;28;19927;-73
2022/06/27 03:29:14;;;;;;;;;;;19.50;99.90;;;;;;4956928;28;19971;-73
2022/06/27 03:31:46;;;;;;;;;;;19.40;99.90;;;;;;4957073;28;20399;-73
2022/06/27 03:34:13;;;;;;;;;;;19.40;99.90;;;;;;4955318;28;19922;-73
2022/06/27 03:36:54;;;;;;;;;;;19.40;99.90;;;;;;4949687;29;19922;-73
2022/06/27 03:39:26;;;;;;;;;;;19.40;99.90;;;;;;4945444;29;20336;-73
2022/06/27 03:41:58;;;;;;;;;;;19.30;99.90;;;;;;4979283;28;20391;-74
2022/06/27 03:44:30;;;;;;;;;;;19.30;99.90;;;;;;4946319;29;19922;-73
2022/06/27 03:47:03;;;;;;;;;;;19.30;99.90;;;;;;4956773;28;19986;-73
2022/06/27 03:50:00;;;;;;;;;;;19.20;99.90;;;;;;4973145;28;19922;-73
2022/06/27 03:52:34;;;;;;;;;;;19.20;99.90;;;;;;4952980;28;19926;-74
2022/06/27 03:55:01;;;;;;;;;;;19.10;99.90;;;;;;4961077;28;19922;-74
2022/06/27 03:57:32;;;;;;;;;;;19.10;99.90;;;;;;4956643;28;20355;-74
2022/06/27 03:59:59;;;;;;;;;;;19.00;99.90;;;;;;4951050;28;19923;-74
2022/06/27 04:02:27;;;;;;;;;;;19.00;99.90;;;;;;4958671;28;20377;-74
2022/06/27 04:05:18;;;;;;;;;;;18.90;99.90;;;;;;4946306;29;19973;-73
2022/06/27 04:07:49;;;;;;;;;;;19.00;99.90;;;;;;4960195;28;19932;-73
2022/06/27 04:10:21;;;;;;;;;;;19.00;99.90;;;;;;4966039;28;20311;-74
2022/06/27 04:12:53;;;;;;;;;;;19.00;99.90;;;;;;4964800;28;19985;-73
2022/06/27 04:15:37;;;;;;;;;;;18.90;99.90;;;;;;4948256;29;19926;-73
2022/06/27 04:18:27;;;;;;;;;;;18.90;99.90;;;;;;4948155;29;20020;-73
2022/06/27 04:20:59;;;;;;;;;;;18.70;99.90;;;;;;4957785;28;19929;-73
2022/06/27 04:23:44;;;;;;;;;;;18.70;99.90;;;;;;4960189;28;19922;-73
2022/06/27 04:26:24;;;;;;;;;;;18.70;99.90;;;;;;4970428;28;19974;-73
2022/06/27 04:28:56;;;;;;;;;;;18.80;99.90;;;;;;4948193;28;20489;-73
2022/06/27 04:31:29;;;;;;;;;;;18.80;99.90;;;;;;4963162;28;20410;-73
2022/06/27 04:34:01;;;;;;;;;;;18.80;99.90;;;;;;4945122;28;19958;-74
2022/06/27 04:36:41;;;;;;;;;;;18.80;99.90;;;;;;4971074;28;19974;-73
2022/06/27 04:39:15;;;;;;;;;;;18.90;99.90;;;;;;4971720;28;19926;-73
2022/06/27 04:41:45;;;;;;;;;;;18.90;99.90;;;;;;4967402;28;20283;-72
2022/06/27 04:44:18;;;;;;;;;;;18.90;99.90;;;;;;4994859;28;19926;-74
2022/06/27 04:46:50;;;;;;;;;;;19.00;99.90;;;;;;4958969;28;19926;-73
2022/06/27 04:49:44;;;;;;;;;;;19.00;99.90;;;;;;4939666;29;20563;-74
2022/06/27 04:52:16;;;;;;;;;;;18.90;99.90;;;;;;4962491;28;20606;-73
2022/06/27 04:54:50;;;;;;;;;;;19.00;99.90;;;;;;4962595;28;20278;-73
2022/06/27 04:57:23;;;;;;;;;;;19.00;99.90;;;;;;4963389;28;19926;-73
2022/06/27 04:59:55;;;;;;;;;;;19.00;99.90;;;;;;4965691;28;20303;-73
2022/06/27 05:02:46;;;;;;;;;;;19.20;99.90;;;;;;4971682;28;19922;-74
2022/06/27 05:05:19;;;;;;;;;;;19.40;99.90;;;;;;4956427;28;20009;-73
2022/06/27 05:07:51;;;;;;;;;;;19.60;99.90;;;;;;4967442;28;20012;-73
2022/06/27 05:10:23;;;;;;;;;;;19.60;99.90;;;;;;4968672;28;19926;-73
2022/06/27 05:12:56;;;;;;;;;;;19.60;99.90;;;;;;4955668;28;19930;-73
2022/06/27 05:15:28;;;;;;;;;;;19.60;99.90;;;;;;4972231;28;19933;-73
2022/06/27 05:18:00;;;;;;;;;;;19.70;99.90;;;;;;4971347;28;20413;-73
2022/06/27 05:20:32;;;;;;;;;;;19.70;99.90;;;;;;4953684;28;19922;-73
2022/06/27 05:23:04;;;;;;;;;;;19.70;99.90;;;;;;4959641;28;19922;-73
2022/06/27 05:25:38;;;;;;;;;;;19.70;99.90;;;;;;4969248;28;20335;-73
2022/06/27 05:28:10;;;;;;;;;;;19.70;99.90;;;;;;4967949;28;19922;-73
2022/06/27 05:30:42;;;;;;;;;;;19.70;99.90;;;;;;4966656;28;20339;-73
2022/06/27 05:33:15;;;;;;;;;;;19.70;99.90;;;;;;4983553;28;20387;-73
2022/06/27 05:35:47;;;;;;;;;;;19.70;99.90;;;;;;4956823;28;19923;-73
2022/06/27 05:38:14;;;;;;;;;;;19.70;99.90;;;;;;4989114;28;19926;-73
2022/06/27 05:40:41;;;;;;;;;;;19.80;99.90;;;;;;4940741;28;20013;-73
2022/06/27 05:43:14;;;;;;;;;;;19.80;99.90;;;;;;4953154;28;19977;-73
2022/06/27 05:45:41;;;;;;;;;;;19.80;99.90;;;;;;4984595;28;20029;-74
2022/06/27 05:48:31;;;;;;;;;;;19.90;99.90;;;;;;4966258;28;20070;-73
2022/06/27 05:51:14;;;;;;;;;;;19.90;99.90;;;;;;4977875;28;20783;-73
2022/06/27 05:53:43;;;;;;;;;;;19.90;99.90;;;;;;4967557;28;19954;-73
2022/06/27 05:56:15;;;;;;;;;;;19.90;99.90;;;;;;4955605;28;19934;-73
2022/06/27 05:58:42;;;;;;;;;;;19.90;99.90;;;;;;4993424;28;19922;-73
2022/06/27 06:01:10;;;;;;;;;;;20.00;99.90;;;;;;4979252;28;19922;-73
2022/06/27 06:03:42;;;;;;;;;;;20.10;99.90;;;;;;4952779;28;19922;-73
2022/06/27 06:06:16;;;;;;;;;;;20.20;99.90;;;;;;4977193;28;19922;-73
2022/06/27 06:08:48;;;;;;;;;;;20.20;99.90;;;;;;4976342;28;19926;-73
2022/06/27 06:11:20;;;;;;;;;;;20.30;99.90;;;;;;4978981;28;19926;-73
2022/06/27 06:13:52;;;;;;;;;;;20.40;99.90;;;;;;4954330;28;20070;-73
2022/06/27 06:16:20;;;;;;;;;;;20.40;99.90;;;;;;4985655;28;19922;-73
2022/06/27 06:18:53;;;;;;;;;;;20.40;99.90;;;;;;4982648;28;19954;-73
2022/06/27 06:21:25;;;;;;;;;;;20.40;99.90;;;;;;4988875;28;19933;-73
2022/06/27 06:23:57;;;;;;;;;;;20.40;99.90;;;;;;4983028;28;19922;-73
2022/06/27 06:26:29;;;;;;;;;;;20.50;99.90;;;;;;4976751;28;20424;-74
2022/06/27 06:28:58;;;;;;;;;;;20.50;99.90;;;;;;4964275;28;19929;-73
2022/06/27 06:31:26;;;;;;;;;;;20.60;99.90;;;;;;4961731;28;19922;-73
2022/06/27 06:34:02;;;;;;;;;;;20.60;99.90;;;;;;4978536;28;19957;-73
2022/06/27 06:36:35;;;;;;;;;;;20.60;99.90;;;;;;4969083;28;19926;-73
2022/06/27 06:39:08;;;;;;;;;;;20.60;99.90;;;;;;4957642;28;20740;-73
2022/06/27 06:41:40;;;;;;;;;;;20.70;99.90;;;;;;4951441;28;19928;-73
2022/06/27 06:44:07;;;;;;;;;;;20.80;99.90;;;;;;4960980;28;19929;-73
2022/06/27 06:46:42;;;;;;;;;;;20.80;99.90;;;;;;4952795;28;20394;-73
2022/06/27 06:49:21;;;;;;;;;;;20.90;99.90;;;;;;4954796;28;20387;-73
2022/06/27 06:51:48;;;;;;;;;;;21.00;99.90;;;;;;4950262;28;19927;-73
2022/06/27 06:54:20;;;;;;;;;;;21.10;99.90;;;;;;4956734;28;20284;-73
2022/06/27 06:56:52;;;;;;;;;;;21.10;99.90;;;;;;4978882;28;20351;-73
2022/06/27 06:59:24;;;;;;;;;;;21.10;99.90;;;;;;4940828;28;20017;-72
2022/06/27 07:01:51;;;;;;;;;;;21.10;99.90;;;;;;4942536;29;19929;-73
2022/06/27 07:04:23;;;;;;;;;;;21.20;99.90;;;;;;4945982;28;19929;-73
2022/06/27 07:06:51;;;;;;;;;;;21.30;99.90;;;;;;4958130;28;20375;-73
2022/06/27 07:09:23;;;;;;;;;;;21.30;99.90;;;;;;4942409;28;19990;-73
2022/06/27 07:11:55;;;;;;;;;;;21.40;99.90;;;;;;4949282;28;20269;-73
2022/06/27 07:14:23;;;;;;;;;;;21.50;99.90;;;;;;4946402;28;20608;-73
2022/06/27 07:16:54;;;;;;;;;;;21.60;99.90;;;;;;4980143;28;19969;-73
2022/06/27 07:19:26;;;;;;;;;;;21.70;99.90;;;;;;4978915;28;19922;-73
2022/06/27 07:21:59;;;;;;;;;;;21.70;99.90;;;;;;4949756;28;19929;-73
2022/06/27 07:24:31;;;;;;;;;;;21.70;99.90;;;;;;4951497;28;20291;-73
2022/06/27 07:27:03;;;;;;;;;;;21.80;99.90;;;;;;4950721;29;19922;-73
2022/06/27 07:29:35;;;;;;;;;;;21.90;99.90;;;;;;4951023;29;19922;-73
2022/06/27 07:32:08;;;;;;;;;;;21.90;99.90;;;;;;4964130;28;19934;-73
2022/06/27 07:34:40;;;;;;;;;;;21.90;99.90;;;;;;4974966;28;19922;-72
2022/06/27 07:37:12;;;;;;;;;;;22.00;99.90;;;;;;4946834;28;19922;-73
2022/06/27 07:39:39;;;;;;;;;;;22.10;99.90;;;;;;4957016;28;19961;-73
2022/06/27 07:42:11;;;;;;;;;;;22.20;99.90;;;;;;4945607;28;19929;-73
2022/06/27 07:44:42;;;;;;;;;;;22.20;99.90;;;;;;4976726;28;20017;-72
2022/06/27 07:47:14;;;;;;;;;;;22.30;99.90;;;;;;4984591;28;20394;-73
2022/06/27 07:49:46;;;;;;;;;;;22.40;99.90;;;;;;4954830;28;19930;-73
2022/06/27 07:52:12;;;;;;;;;;;22.40;99.90;;;;;;4983692;28;19922;-73
2022/06/27 07:54:39;;;;;;;;;;;22.50;99.90;;;;;;4971498;28;19922;-73
2022/06/27 07:57:11;;;;;;;;;;;22.50;99.90;;;;;;4957683;28;20383;-73
2022/06/27 07:59:42;;;;;;;;;;;22.60;99.90;;;;;;4967760;28;20406;-73
2022/06/27 08:02:09;;;;;;;;;;;22.70;99.90;;;;;;4951944;28;20432;-73
2022/06/27 08:04:41;;;;;;;;;;;22.90;99.90;;;;;;4932532;29;19934;-73
2022/06/27 08:07:08;;;;;;;;;;;22.90;99.90;;;;;;4973745;28;19926;-73
2022/06/27 08:09:42;;;;;;;;;;;23.00;99.90;;;;;;4950177;28;19970;-72
2022/06/27 08:12:13;;;;;;;;;;;23.10;99.90;;;;;;4974099;28;20288;-73
2022/06/27 08:14:41;;;;;;;;;;;23.20;99.90;;;;;;4948006;28;19933;-74
2022/06/27 08:17:14;;;;;;;;;;;23.20;99.90;;;;;;4971545;28;20302;-73
2022/06/27 08:19:41;;;;;;;;;;;23.30;99.90;;;;;;4944340;29;20318;-72
2022/06/27 08:22:14;;;;;;;;;;;23.40;99.90;;;;;;4940724;29;19923;-72
2022/06/27 08:24:46;;;;;;;;;;;23.50;99.90;;;;;;4956409;28;20008;-71
2022/06/27 08:27:18;;;;;;;;;;;23.60;99.90;;;;;;4943433;29;19926;-71
2022/06/27 08:29:49;;;;;;;;;;;23.60;99.90;;;;;;4951233;28;19930;-72
2022/06/27 08:32:21;;;;;;;;;;;23.70;99.90;;;;;;4951197;28;19926;-71
2022/06/27 08:34:55;;;;;;;;;;;23.70;99.90;;;;;;4961553;28;19929;-71
2022/06/27 08:37:27;;;;;;;;;;;23.80;99.90;;;;;;4946732;29;20021;-72
2022/06/27 08:39:59;;;;;;;;;;;23.80;99.90;;;;;;4945834;29;19926;-72
2022/06/27 08:42:31;;;;;;;;;;;23.90;99.90;;;;;;4946445;28;20024;-72
2022/06/27 08:44:57;;;;;;;;;;;24.00;99.90;;;;;;4944999;29;20561;-71
2022/06/27 08:47:30;;;;;;;;;;;24.10;99.90;;;;;;4952742;28;19933;-71
2022/06/27 08:50:02;;;;;;;;;;;24.20;99.90;;;;;;4946874;28;19932;-71
2022/06/27 08:52:40;;;;;;;;;;;24.30;99.90;;;;;;4948248;28;20001;-72
2022/06/27 08:55:12;;;;;;;;;;;24.30;99.90;;;;;;4942141;29;19926;-71
2022/06/27 08:57:45;;;;;;;;;;;24.40;99.90;;;;;;4956730;28;19923;-72
2022/06/27 09:00:17;;;;;;;;;;;24.50;99.90;;;;;;4949732;28;20308;-72
2022/06/27 09:02:49;;;;;;;;;;;24.60;99.90;;;;;;4962070;28;19926;-72
2022/06/27 09:05:15;;;;;;;;;;;24.80;99.90;;;;;;4965555;28;20302;-72
2022/06/27 09:07:52;;;;;;;;;;;24.90;99.90;;;;;;4973241;28;20003;-71
2022/06/27 09:10:26;;;;;;;;;;;24.90;99.90;;;;;;4937235;29;19926;-72
2022/06/27 09:13:05;;;;;;;;;;;24.90;99.90;;;;;;4945212;29;20021;-72
2022/06/27 09:15:37;;;;;;;;;;;25.10;99.90;;;;;;4983543;28;19926;-72
2022/06/27 09:18:09;;;;;;;;;;;25.20;99.90;;;;;;4952983;28;19923;-72
2022/06/27 09:20:47;;;;;;;;;;;25.30;99.90;;;;;;4967016;28;19923;-72
2022/06/27 09:23:41;;;;;;;;;;;25.30;99.90;;;;;;4974068;28;19930;-72
2022/06/27 09:26:22;;;;;;;;;;;25.40;99.90;;;;;;4981316;28;19958;-71
2022/06/27 09:28:54;;;;;;;;;;;25.60;99.90;;;;;;4980273;28;19922;-72
2022/06/27 09:31:30;;;;;;;;;;;25.60;99.90;;;;;;4942114;29;19930;-72
2022/06/27 09:34:05;;;;;;;;;;;25.80;99.90;;;;;;4975192;28;19933;-71
2022/06/27 09:36:39;;;;;;;;;;;25.80;99.90;;;;;;4948671;28;19938;-71
2022/06/27 09:39:22;;;;;;;;;;;25.80;99.90;;;;;;4960164;28;20017;-71
2022/06/27 09:41:59;;;;;;;;;;;26.00;99.90;;;;;;4949241;28;20383;-72
2022/06/27 09:44:33;;;;;;;;;;;26.10;99.90;;;;;;4957695;28;19927;-72
2022/06/27 09:47:03;;;;;;;;;;;26.10;99.90;;;;;;4941812;29;19930;-72
2022/06/27 09:49:31;;;;;;;;;;;26.30;99.90;;;;;;4948731;28;19927;-72
2022/06/27 09:52:10;;;;;;;;;;;26.20;99.90;;;;;;4965282;28;19930;-72
2022/06/27 09:54:43;;;;;;;;;;;26.20;99.90;;;;;;4953638;28;20006;-72
2022/06/27 09:57:10;;;;;;;;;;;26.30;99.90;;;;;;4940017;28;20391;-73
2022/06/27 09:59:43;;;;;;;;;;;26.40;99.90;;;;;;4940739;28;19923;-72
2022/06/27 10:02:16;;;;;;;;;;;26.50;99.90;;;;;;4943294;28;19929;-72
2022/06/27 10:04:49;;;;;;;;;;;26.60;99.90;;;;;;4935330;29;19927;-72
2022/06/27 10:07:22;;;;;;;;;;;26.70;99.90;;;;;;4935527;29;19933;-72
2022/06/27 10:09:52;;;;;;;;;;;26.60;99.90;;;;;;4936638;29;19927;-72
2022/06/27 10:12:28;;;;;;;;;;;26.60;99.90;;;;;;4942140;29;19951;-72
2022/06/27 10:15:14;;;;;;;;;;;26.60;99.90;;;;;;4949927;28;19922;-71
2022/06/27 10:17:46;;;;;;;;;;;26.60;99.90;;;;;;4945661;28;20307;-71
2022/06/27 10:20:28;;;;;;;;;;;26.70;99.90;;;;;;4948383;28;19954;-72
2022/06/27 10:23:03;;;;;;;;;;;26.70;99.90;;;;;;4946107;29;20363;-72
2022/06/27 10:25:29;;;;;;;;;;;26.80;99.90;;;;;;4945938;28;20418;-72
2022/06/27 10:28:14;;;;;;;;;;;26.80;99.90;;;;;;4942504;28;20024;-71
2022/06/27 10:30:46;;;;;;;;;;;26.70;99.90;;;;;;4976050;28;20376;-72
2022/06/27 10:33:21;;;;;;;;;;;26.60;99.90;;;;;;4947419;28;19923;-72
2022/06/27 10:36:10;;;;;;;;;;;26.70;99.90;;;;;;4944126;28;19922;-71
2022/06/27 10:38:42;;;;;;;;;;;26.70;99.90;;;;;;4959713;28;19930;-72
2022/06/27 10:41:19;;;;;;;;;;;26.80;99.90;;;;;;4945459;29;19923;-72
2022/06/27 10:43:53;;;;;;;;;;;26.80;99.90;;;;;;4975323;28;19922;-72
2022/06/27 10:46:25;;;;;;;;;;;26.70;99.90;;;;;;4942955;28;19922;-72
2022/06/27 10:48:57;;;;;;;;;;;26.80;99.90;;;;;;4948030;28;20453;-72
2022/06/27 10:51:26;;;;;;;;;;;26.90;99.90;;;;;;4949326;28;19922;-72
2022/06/27 10:53:59;;;;;;;;;;;26.90;99.90;;;;;;4945613;28;19929;-72
2022/06/27 10:56:35;;;;;;;;;;;27.00;99.90;;;;;;4953382;28;19929;-71
2022/06/27 10:59:27;;;;;;;;;;;27.00;99.90;;;;;;4945344;28;19926;-71
2022/06/27 11:02:00;;;;;;;;;;;26.90;99.90;;;;;;4943422;28;20020;-71
2022/06/27 11:04:36;;;;;;;;;;;27.00;99.90;;;;;;4977940;28;19926;-72
2022/06/27 11:07:08;;;;;;;;;;;27.10;99.90;;;;;;4939676;29;19927;-71
2022/06/27 11:09:36;;;;;;;;;;;27.20;99.90;;;;;;4951524;28;19930;-72
2022/06/27 11:12:08;;;;;;;;;;;27.40;99.90;;;;;;4945418;29;20379;-72
2022/06/27 11:14:53;;;;;;;;;;;27.50;99.90;;;;;;4940043;29;19923;-72
2022/06/27 11:17:27;;;;;;;;;;;27.50;99.90;;;;;;4976302;28;19927;-72
2022/06/27 11:20:11;;;;;;;;;;;27.20;99.90;;;;;;4945403;28;19922;-71
2022/06/27 11:22:45;;;;;;;;;;;26.90;99.90;;;;;;4945268;29;20384;-71
2022/06/27 11:25:19;;;;;;;;;;;27.00;99.90;;;;;;4960045;28;19930;-71
2022/06/27 11:27:52;;;;;;;;;;;27.00;99.90;;;;;;4982934;28;20268;-71
2022/06/27 11:33:26;;;;;;;;;;;27.10;99.90;;;;;;4948829;28;19923;-71
2022/06/27 11:35:58;;;;;;;;;;;27.10;99.90;;;;;;4963933;28;20698;-71
2022/06/27 11:38:47;;;;;;;;;;;26.90;99.90;;;;;;4971672;28;19927;-72
2022/06/27 11:41:26;;;;;;;;;;;27.00;99.90;;;;;;4961763;28;19929;-72
2022/06/27 11:43:53;;;;;;;;;;;27.00;99.90;;;;;;4949852;28;19970;-71
2022/06/27 11:46:28;;;;;;;;;;;27.10;99.90;;;;;;4970072;28;19927;-72
2022/06/27 11:49:04;;;;;;;;;;;27.20;99.90;;;;;;4965642;28;19969;-72
2022/06/27 11:51:43;;;;;;;;;;;27.10;99.90;;;;;;4952812;28;19929;-72
2022/06/27 11:54:19;;;;;;;;;;;27.00;99.90;;;;;;4976578;28;19922;-71
2022/06/27 11:56:52;;;;;;;;;;;26.90;99.90;;;;;;4925986;28;19922;-71
2022/06/27 11:59:24;;;;;;;;;;;26.90;99.90;;;;;;4945928;28;20545;-71
2022/06/27 12:02:03;;;;;;;;;;;26.80;99.90;;;;;;4953757;28;19932;-71
2022/06/27 12:04:35;;;;;;;;;;;26.70;99.90;;;;;;4946257;28;19933;-72
2022/06/27 12:07:07;;;;;;;;;;;26.80;99.90;;;;;;4949264;28;19922;-71
2022/06/27 12:09:51;;;;;;;;;;;27.10;99.90;;;;;;4944511;28;20005;-71
2022/06/27 12:12:25;;;;;;;;;;;27.40;99.90;;;;;;4946793;29;20569;-71
2022/06/27 12:14:57;;;;;;;;;;;27.40;99.90;;;;;;4941332;29;19933;-71
2022/06/27 12:17:37;;;;;;;;;;;27.20;99.90;;;;;;4958613;28;19922;-71
2022/06/27 12:20:09;;;;;;;;;;;26.90;99.90;;;;;;4941600;29;19923;-71
2022/06/27 12:22:40;;;;;;;;;;;26.50;99.90;;;;;;4956330;28;19927;-71
2022/06/27 12:25:12;;;;;;;;;;;26.30;99.90;;;;;;4939437;28;20095;-71
2022/06/27 12:27:44;;;;;;;;;;;26.00;99.90;;;;;;4969136;28;19974;-72
2022/06/27 12:30:16;;;;;;;;;;;26.00;99.90;;;;;;4952643;28;19923;-72
2022/06/27 12:32:47;;;;;;;;;;;25.60;99.90;;;;;;4979445;28;19981;-71
2022/06/27 12:35:19;;;;;;;;;;;25.40;99.90;;;;;;4962800;28;19922;-71
2022/06/27 12:37:46;;;;;;;;;;;25.50;99.90;;;;;;4951701;28;20630;-71
2022/06/27 12:40:18;;;;;;;;;;;25.60;99.90;;;;;;4944715;28;19930;-72
2022/06/27 12:42:49;;;;;;;;;;;25.70;99.90;;;;;;4976161;28;19933;-71
2022/06/27 12:45:21;;;;;;;;;;;25.80;99.90;;;;;;4965326;28;20626;-71
2022/06/27 12:47:52;;;;;;;;;;;25.60;99.90;;;;;;4957837;28;19923;-71
2022/06/27 12:50:24;;;;;;;;;;;25.60;99.90;;;;;;4967380;28;20418;-72
2022/06/27 12:52:51;;;;;;;;;;;25.80;99.90;;;;;;4949015;28;19962;-72
2022/06/27 12:55:18;;;;;;;;;;;26.20;99.90;;;;;;4974312;28;19922;-73
2022/06/27 12:57:49;;;;;;;;;;;26.40;99.90;;;;;;4954879;28;19932;-72
2022/06/27 13:00:21;;;;;;;;;;;26.50;99.90;;;;;;4958641;28;19944;-72
2022/06/27 13:02:53;;;;;;;;;;;26.70;99.90;;;;;;4970916;28;19930;-72
2022/06/27 13:05:19;;;;;;;;;;;26.90;99.90;;;;;;4958082;28;19922;-73
2022/06/27 13:07:51;;;;;;;;;;;27.00;99.90;;;;;;4977266;28;19948;-72
2022/06/27 13:10:23;;;;;;;;;;;27.00;99.90;;;;;;4972780;28;20306;-73
2022/06/27 13:12:54;;;;;;;;;;;26.80;99.90;;;;;;4980677;28;19926;-72
2022/06/27 13:15:21;;;;;;;;;;;26.60;99.90;;;;;;4952642;28;19926;-73
2022/06/27 13:17:53;;;;;;;;;;;26.60;99.90;;;;;;4980000;28;19926;-74
2022/06/27 13:20:19;;;;;;;;;;;26.70;99.90;;;;;;4956091;28;19929;-73
2022/06/27 13:22:51;;;;;;;;;;;26.80;99.90;;;;;;4960663;28;19948;-72
2022/06/27 13:25:18;;;;;;;;;;;26.80;99.90;;;;;;4967719;28;20574;-72
2022/06/27 13:27:50;;;;;;;;;;;26.70;99.90;;;;;;4958015;28;19948;-72
2022/06/27 13:30:17;;;;;;;;;;;26.90;99.90;;;;;;4977076;28;19930;-72
2022/06/27 13:32:43;;;;;;;;;;;26.60;99.90;;;;;;4959788;28;19929;-72
2022/06/27 13:35:15;;;;;;;;;;;26.80;99.90;;;;;;4951008;28;19965;-72
2022/06/27 13:37:42;;;;;;;;;;;27.20;99.90;;;;;;4957157;28;19929;-73
2022/06/27 13:40:13;;;;;;;;;;;27.30;99.90;;;;;;4978253;28;20302;-73
2022/06/27 13:42:40;;;;;;;;;;;27.50;99.90;;;;;;4959240;28;19927;-73
2022/06/27 13:45:07;;;;;;;;;;;27.70;99.90;;;;;;4984594;28;19953;-72
2022/06/27 13:47:38;;;;;;;;;;;27.90;99.90;;;;;;4975623;28;19927;-73
2022/06/27 13:50:05;;;;;;;;;;;28.00;99.90;;;;;;4963541;28;19926;-74
2022/06/27 13:52:34;;;;;;;;;;;28.00;99.90;;;;;;4977733;28;19923;-72
2022/06/27 13:55:06;;;;;;;;;;;28.00;99.90;;;;;;4960697;28;19922;-73
2022/06/27 13:57:38;;;;;;;;;;;28.20;99.90;;;;;;4969221;28;19936;-73
2022/06/27 14:00:10;;;;;;;;;;;28.20;99.90;;;;;;4967103;28;19926;-72
2022/06/27 14:02:42;;;;;;;;;;;28.20;99.90;;;;;;4959632;28;19970;-73
2022/06/27 14:05:13;;;;;;;;;;;28.40;99.90;;;;;;4975438;28;19922;-72
2022/06/27 14:07:40;;;;;;;;;;;28.50;99.90;;;;;;4970355;28;19928;-72
2022/06/27 14:10:17;;;;;;;;;;;28.50;99.90;;;;;;4958094;28;20344;-73
2022/06/27 14:12:44;;;;;;;;;;;28.60;99.90;;;;;;4969012;28;20542;-72
2022/06/27 14:15:18;;;;;;;;;;;28.50;99.90;;;;;;4972129;28;19922;-73
2022/06/27 14:17:50;;;;;;;;;;;28.30;99.90;;;;;;4953596;28;19930;-73
2022/06/27 14:20:22;;;;;;;;;;;28.30;99.90;;;;;;4951062;28;19929;-74
2022/06/27 14:22:54;;;;;;;;;;;28.10;99.90;;;;;;4954106;28;19926;-72
2022/06/27 14:25:27;;;;;;;;;;;28.00;99.90;;;;;;4985107;28;19926;-74
2022/06/27 14:27:59;;;;;;;;;;;27.90;99.90;;;;;;4960395;28;20008;-73
2022/06/27 14:30:31;;;;;;;;;;;28.20;99.90;;;;;;4986974;28;19922;-73
2022/06/27 14:32:57;;;;;;;;;;;28.20;99.90;;;;;;4953756;28;19926;-72
2022/06/27 14:35:29;;;;;;;;;;;28.40;99.90;;;;;;4981689;28;20457;-72
2022/06/27 14:38:01;;;;;;;;;;;28.30;99.90;;;;;;4954572;28;20303;-73
2022/06/27 14:40:36;;;;;;;;;;;28.10;99.90;;;;;;4959497;28;19922;-73
2022/06/27 14:43:03;;;;;;;;;;;28.20;99.90;;;;;;4980377;28;20013;-72
2022/06/27 14:45:35;;;;;;;;;;;27.90;99.90;;;;;;4951628;28;19926;-73
2022/06/27 14:48:07;;;;;;;;;;;27.80;99.90;;;;;;4969821;28;20116;-74
2022/06/27 14:50:38;;;;;;;;;;;27.90;99.90;;;;;;4956724;28;19930;-72